Time;durP1;ratioP1;P1;durP2;ratioP2;P2;SDS_P1;SDS_P2;PMS_P1;PMS_P2;Temp;Humidity;BMP_temperature;BMP_pressure;BME280_temperature;BME280_humidity;BME280_pressure;Samples;Min_cycle;Max_cycle;Signal;HPM_P1;HPM_P2
2023/12/25 00:00:28;;;;;;;3.23;2.37;;;10.30;99.90;;;;;;5001147;28;20912;-65
2023/12/25 00:02:56;;;;;;;3.43;2.20;;;10.30;99.90;;;;;;5000750;28;20532;-65
2023/12/25 00:05:23;;;;;;;2.97;2.17;;;10.30;99.90;;;;;;5006679;28;20468;-66
2023/12/25 00:07:50;;;;;;;2.97;2.10;;;10.20;99.90;;;;;;5020976;28;20459;-65
2023/12/25 00:10:18;;;;;;;3.50;2.43;;;10.30;99.90;;;;;;5020814;28;20616;-68
2023/12/25 00:12:45;;;;;;;3.20;2.40;;;10.30;99.90;;;;;;5020475;28;20456;-65
2023/12/25 00:15:13;;;;;;;3.77;2.67;;;10.30;99.90;;;;;;5020109;28;20563;-64
2023/12/25 00:17:42;;;;;;;2.80;2.30;;;10.30;99.90;;;;;;5002720;28;20493;-70
2023/12/25 00:20:10;;;;;;;3.17;2.50;;;10.30;99.90;;;;;;5000254;28;20495;-62
2023/12/25 00:22:38;;;;;;;5.93;2.40;;;10.30;99.90;;;;;;5000286;28;20496;-66
2023/12/25 00:25:06;;;;;;;3.90;2.60;;;10.30;99.90;;;;;;4999603;28;20547;-70
2023/12/25 00:27:36;;;;;;;3.70;3.30;;;10.20;99.90;;;;;;5000098;28;20523;-65
2023/12/25 00:30:03;;;;;;;4.10;3.37;;;10.30;99.90;;;;;;5000564;28;20472;-70
2023/12/25 00:32:31;;;;;;;3.40;3.00;;;10.30;99.90;;;;;;5005514;28;20925;-66
2023/12/25 00:35:00;;;;;;;4.90;3.70;;;10.30;99.90;;;;;;5008101;28;20953;-67
2023/12/25 00:37:27;;;;;;;3.53;3.23;;;10.30;99.90;;;;;;5003487;28;20457;-67
2023/12/25 00:39:54;;;;;;;4.50;3.90;;;10.30;99.90;;;;;;5000089;28;20504;-65
2023/12/25 00:42:22;;;;;;;4.53;3.20;;;10.30;99.90;;;;;;5000218;28;21012;-64
2023/12/25 00:44:50;;;;;;;4.23;3.27;;;10.30;99.90;;;;;;4999981;28;20439;-68
2023/12/25 00:47:17;;;;;;;6.07;3.83;;;10.30;99.90;;;;;;4999987;28;20461;-69
2023/12/25 00:49:44;;;;;;;6.30;4.20;;;10.30;99.90;;;;;;4998303;28;20496;-65
2023/12/25 00:52:17;;;;;;;4.57;3.57;;;10.30;99.90;;;;;;4998671;28;20457;-66
2023/12/25 00:54:44;;;;;;;4.33;3.20;;;10.30;99.90;;;;;;5000541;28;20465;-66
2023/12/25 00:57:11;;;;;;;4.60;3.30;;;10.30;99.90;;;;;;4999597;28;20461;-69
2023/12/25 00:59:39;;;;;;;3.47;3.17;;;10.30;99.90;;;;;;4999877;28;20450;-66
2023/12/25 01:02:06;;;;;;;4.80;3.93;;;10.30;99.90;;;;;;4999712;28;20489;-63
2023/12/25 01:04:34;;;;;;;3.80;3.50;;;10.30;99.90;;;;;;5004493;28;20561;-64
2023/12/25 01:07:02;;;;;;;4.37;3.53;;;10.30;99.90;;;;;;5015763;28;20468;-66
2023/12/25 01:09:31;;;;;;;4.77;3.70;;;10.30;99.90;;;;;;5018829;28;20476;-64
2023/12/25 01:11:58;;;;;;;5.30;3.70;;;10.30;99.90;;;;;;5019032;28;20460;-66
2023/12/25 01:14:25;;;;;;;3.90;3.40;;;10.30;99.90;;;;;;5018958;28;20460;-64
2023/12/25 01:16:53;;;;;;;3.90;3.30;;;10.30;99.90;;;;;;5018279;28;20537;-65
2023/12/25 01:19:20;;;;;;;4.60;3.00;;;10.30;99.90;;;;;;5019044;28;20575;-67
2023/12/25 01:21:47;;;;;;;5.40;3.17;;;10.30;99.90;;;;;;5018034;28;20518;-65
2023/12/25 01:24:14;;;;;;;4.00;3.10;;;10.30;99.90;;;;;;5019063;28;20931;-69
2023/12/25 01:26:43;;;;;;;4.53;3.10;;;10.30;99.90;;;;;;5018976;28;20483;-68
2023/12/25 01:29:10;;;;;;;4.00;3.40;;;10.30;99.90;;;;;;5019663;28;20466;-64
2023/12/25 01:31:37;;;;;;;3.63;2.97;;;10.30;99.90;;;;;;5018474;28;20456;-64
2023/12/25 01:34:05;;;;;;;4.00;3.50;;;10.30;99.90;;;;;;5018279;28;20989;-67
2023/12/25 01:36:33;;;;;;;3.57;3.00;;;10.30;99.90;;;;;;5019171;28;20491;-65
2023/12/25 01:39:00;;;;;;;6.93;3.20;;;10.40;99.90;;;;;;5018577;28;20471;-64
2023/12/25 01:41:28;;;;;;;4.77;2.90;;;10.30;99.90;;;;;;5018579;28;20462;-64
2023/12/25 01:43:56;;;;;;;2.97;2.40;;;10.30;99.90;;;;;;5018677;28;20464;-64
2023/12/25 01:46:24;;;;;;;4.93;3.23;;;10.40;99.90;;;;;;5019093;28;20463;-65
2023/12/25 01:48:52;;;;;;;4.17;3.00;;;10.30;99.90;;;;;;5018617;28;20461;-63
2023/12/25 01:51:22;;;;;;;5.03;3.37;;;10.40;99.90;;;;;;5018502;28;20482;-62
2023/12/25 01:53:50;;;;;;;3.70;3.27;;;10.40;99.90;;;;;;5018009;28;20474;-67
2023/12/25 01:56:17;;;;;;;3.30;2.97;;;10.40;99.90;;;;;;5018842;28;20643;-66
2023/12/25 01:58:45;;;;;;;4.63;2.97;;;10.40;99.90;;;;;;5018573;28;20550;-63
2023/12/25 02:01:13;;;;;;;3.57;3.27;;;10.40;99.90;;;;;;5018035;28;20523;-65
2023/12/25 02:03:40;;;;;;;4.53;2.80;;;10.40;99.90;;;;;;5018106;28;20542;-65
2023/12/25 02:06:08;;;;;;;3.73;2.33;;;10.40;99.90;;;;;;5018150;28;20488;-69
2023/12/25 02:08:36;;;;;;;4.27;2.97;;;10.40;99.90;;;;;;5018503;28;20456;-68
2023/12/25 02:11:04;;;;;;;4.43;2.83;;;10.40;99.90;;;;;;5017687;28;20498;-67
2023/12/25 02:13:31;;;;;;;4.00;2.80;;;10.30;99.90;;;;;;5018203;28;20898;-66
2023/12/25 02:15:59;;;;;;;3.50;3.00;;;10.40;99.90;;;;;;5017930;28;20555;-63
2023/12/25 02:18:28;;;;;;;5.97;3.03;;;10.40;99.90;;;;;;5017842;28;20476;-62
2023/12/25 02:20:55;;;;;;;4.17;3.13;;;10.40;99.90;;;;;;5017463;28;20558;-65
2023/12/25 02:23:26;;;;;;;5.50;2.97;;;10.40;99.90;;;;;;5018092;28;20495;-67
2023/12/25 02:25:57;;;;;;;4.00;2.80;;;10.40;99.90;;;;;;5018007;28;20731;-65
2023/12/25 02:28:25;;;;;;;4.20;2.80;;;10.40;99.90;;;;;;5017923;28;20460;-63
2023/12/25 02:30:52;;;;;;;3.40;2.90;;;10.40;99.90;;;;;;5017927;28;20456;-64
2023/12/25 02:33:19;;;;;;;4.33;2.23;;;10.40;99.90;;;;;;5018075;28;20491;-66
2023/12/25 02:35:47;;;;;;;4.10;3.40;;;10.40;99.90;;;;;;5018236;28;20460;-66
2023/12/25 02:38:14;;;;;;;4.10;2.97;;;10.40;99.90;;;;;;5017953;28;20559;-64
2023/12/25 02:40:41;;;;;;;6.20;3.00;;;10.40;99.90;;;;;;5018321;28;20467;-66
2023/12/25 02:43:10;;;;;;;4.93;2.90;;;10.40;99.90;;;;;;5017398;28;20590;-66
2023/12/25 02:45:38;;;;;;;2.90;2.57;;;10.50;99.90;;;;;;5017817;28;20499;-64
2023/12/25 02:48:06;;;;;;;3.13;2.63;;;10.40;99.90;;;;;;5017866;28;20444;-65
2023/12/25 02:50:34;;;;;;;3.07;2.53;;;10.40;99.90;;;;;;5017951;28;20455;-65
2023/12/25 02:53:03;;;;;;;3.90;2.20;;;10.40;99.90;;;;;;5017287;28;20464;-64
2023/12/25 02:55:30;;;;;;;3.07;2.23;;;10.40;99.90;;;;;;5017436;28;20464;-64
2023/12/25 02:57:58;;;;;;;5.93;2.87;;;10.50;99.90;;;;;;5017839;28;20816;-65
2023/12/25 03:00:26;;;;;;;5.30;2.27;;;10.50;99.90;;;;;;5017822;28;20460;-67
2023/12/25 03:02:54;;;;;;;4.93;2.70;;;10.50;99.90;;;;;;5017610;28;21039;-65
2023/12/25 03:05:21;;;;;;;3.00;2.50;;;10.40;99.90;;;;;;5017199;28;20472;-66
2023/12/25 03:07:48;;;;;;;4.00;3.60;;;10.50;99.90;;;;;;5017538;28;20494;-65
2023/12/25 03:10:16;;;;;;;3.90;2.97;;;10.50;99.90;;;;;;5017543;28;20562;-67
2023/12/25 03:12:43;;;;;;;3.90;3.33;;;10.50;99.90;;;;;;5017721;28;20550;-66
2023/12/25 03:15:10;;;;;;;4.03;2.50;;;10.50;99.90;;;;;;5016914;28;20491;-65
2023/12/25 03:17:39;;;;;;;3.53;2.30;;;10.50;99.90;;;;;;5017253;28;20482;-64
2023/12/25 03:20:07;;;;;;;3.27;2.97;;;10.50;99.90;;;;;;5017512;28;20484;-64
2023/12/25 03:22:35;;;;;;;4.17;3.03;;;10.50;99.90;;;;;;5017447;28;20502;-66
2023/12/25 03:25:02;;;;;;;3.50;2.93;;;10.50;99.90;;;;;;5016888;28;20460;-65
2023/12/25 03:27:29;;;;;;;4.70;3.47;;;10.50;99.90;;;;;;5017065;28;20466;-66
2023/12/25 03:29:56;;;;;;;3.90;2.87;;;10.50;99.90;;;;;;5017082;28;20438;-65
2023/12/25 03:32:24;;;;;;;3.87;2.90;;;10.40;99.90;;;;;;5017442;28;20438;-63
2023/12/25 03:34:52;;;;;;;4.27;2.87;;;10.50;99.90;;;;;;5017135;28;20498;-66
2023/12/25 03:37:20;;;;;;;5.00;2.80;;;10.50;99.90;;;;;;5016775;28;20470;-67
2023/12/25 03:39:47;;;;;;;3.43;2.30;;;10.50;99.90;;;;;;5017325;28;20464;-66
2023/12/25 03:42:14;;;;;;;3.13;2.80;;;10.50;99.90;;;;;;5017011;28;20492;-67
2023/12/25 03:44:41;;;;;;;4.53;2.90;;;10.50;99.90;;;;;;5018870;28;20468;-65
2023/12/25 03:47:08;;;;;;;3.87;2.83;;;10.50;99.90;;;;;;5020469;28;20460;-64
2023/12/25 03:49:37;;;;;;;4.23;2.90;;;10.50;99.90;;;;;;5020659;28;20482;-66
2023/12/25 03:52:06;;;;;;;3.40;3.10;;;10.50;99.90;;;;;;5021044;28;20873;-67
2023/12/25 03:54:33;;;;;;;3.50;2.37;;;10.50;99.90;;;;;;5020700;28;20463;-66
2023/12/25 03:57:00;;;;;;;3.30;2.37;;;10.50;99.90;;;;;;5020376;28;20770;-66
2023/12/25 03:59:27;;;;;;;4.20;2.87;;;10.50;99.90;;;;;;5020367;28;20542;-67
2023/12/25 04:01:55;;;;;;;3.60;2.90;;;10.50;99.90;;;;;;5020612;28;20570;-65
2023/12/25 04:04:22;;;;;;;4.70;3.63;;;10.50;99.90;;;;;;5020436;28;20499;-66
2023/12/25 04:06:49;;;;;;;3.80;3.17;;;10.50;99.90;;;;;;5020818;28;20562;-66
2023/12/25 04:09:17;;;;;;;4.00;2.80;;;10.50;99.90;;;;;;5020400;28;20953;-67
2023/12/25 04:11:45;;;;;;;3.67;3.37;;;10.50;99.90;;;;;;5019866;28;20842;-67
2023/12/25 04:14:12;;;;;;;4.00;3.53;;;10.50;99.90;;;;;;5020413;28;20462;-65
2023/12/25 04:16:39;;;;;;;3.80;3.20;;;10.50;99.90;;;;;;5020458;28;20514;-66
2023/12/25 04:19:06;;;;;;;4.40;3.03;;;10.60;99.90;;;;;;5019785;28;20785;-66
2023/12/25 04:21:33;;;;;;;6.63;3.67;;;10.50;99.90;;;;;;5019999;28;20558;-69
2023/12/25 04:24:01;;;;;;;4.53;3.83;;;10.60;99.90;;;;;;5019932;28;20606;-66
2023/12/25 04:26:30;;;;;;;4.23;3.67;;;10.60;99.90;;;;;;5020373;28;20463;-67
2023/12/25 04:28:57;;;;;;;4.87;3.83;;;10.60;99.90;;;;;;5020196;28;20877;-64
2023/12/25 04:31:24;;;;;;;4.77;3.70;;;10.60;99.90;;;;;;5019561;28;20474;-69
2023/12/25 04:33:52;;;;;;;5.77;4.20;;;10.60;99.90;;;;;;5019768;28;20467;-65
2023/12/25 04:36:19;;;;;;;5.40;4.00;;;10.60;99.90;;;;;;5019949;28;20745;-65
2023/12/25 04:38:46;;;;;;;4.80;4.17;;;10.60;99.90;;;;;;5019980;28;20912;-67
2023/12/25 04:41:14;;;;;;;5.07;4.57;;;10.60;99.90;;;;;;5019615;28;20488;-70
2023/12/25 04:43:42;;;;;;;5.87;3.80;;;10.60;99.90;;;;;;5019553;28;20519;-68
2023/12/25 04:46:09;;;;;;;5.30;4.47;;;10.60;99.90;;;;;;5019722;28;20500;-65
2023/12/25 04:48:36;;;;;;;7.60;3.87;;;10.60;99.90;;;;;;5019990;28;20744;-66
2023/12/25 04:51:04;;;;;;;4.20;3.20;;;10.60;99.90;;;;;;5019584;28;20466;-66
2023/12/25 04:53:31;;;;;;;6.53;3.37;;;10.70;99.90;;;;;;5019657;28;20739;-68
2023/12/25 04:55:58;;;;;;;3.43;3.13;;;10.60;99.90;;;;;;5018561;28;20758;-66
2023/12/25 04:58:25;;;;;;;4.13;3.73;;;10.60;99.90;;;;;;5019591;28;20878;-65
2023/12/25 05:00:54;;;;;;;3.43;3.13;;;10.70;99.90;;;;;;5019527;28;20460;-63
2023/12/25 05:03:22;;;;;;;7.20;3.10;;;10.60;99.90;;;;;;5019544;28;20491;-66
2023/12/25 05:05:49;;;;;;;5.50;3.40;;;10.60;99.90;;;;;;5019323;28;20752;-66
2023/12/25 05:08:18;;;;;;;3.07;2.53;;;10.60;99.90;;;;;;5019734;28;20923;-65
2023/12/25 05:10:47;;;;;;;6.07;2.60;;;10.60;99.90;;;;;;5019432;28;20742;-64
2023/12/25 05:13:14;;;;;;;4.83;2.47;;;10.60;99.90;;;;;;5019394;28;20558;-67
2023/12/25 05:15:41;;;;;;;4.00;3.20;;;10.60;99.90;;;;;;5019110;28;20507;-65
2023/12/25 05:18:10;;;;;;;3.10;2.80;;;10.60;99.90;;;;;;5018251;28;20639;-64
2023/12/25 05:20:37;;;;;;;4.50;3.40;;;10.60;99.90;;;;;;5019567;28;20472;-68
2023/12/25 05:23:05;;;;;;;4.30;2.90;;;10.60;99.90;;;;;;5018762;28;20598;-63
2023/12/25 05:25:33;;;;;;;3.00;2.70;;;10.50;99.90;;;;;;5018769;28;20468;-69
2023/12/25 05:28:00;;;;;;;2.93;2.43;;;10.50;99.90;;;;;;5018865;28;20460;-66
2023/12/25 05:30:27;;;;;;;3.50;3.20;;;10.50;99.90;;;;;;5018989;28;20582;-66
2023/12/25 05:32:54;;;;;;;4.17;2.27;;;10.60;99.90;;;;;;5018843;28;20452;-64
2023/12/25 05:35:23;;;;;;;3.30;2.60;;;10.50;99.90;;;;;;5018454;28;20459;-65
2023/12/25 05:37:50;;;;;;;2.80;2.50;;;10.50;99.90;;;;;;5018885;28;20555;-67
2023/12/25 05:40:18;;;;;;;3.30;2.57;;;10.50;99.90;;;;;;5019421;28;20874;-68
2023/12/25 05:42:45;;;;;;;2.80;2.27;;;10.50;99.90;;;;;;5018600;28;20464;-64
2023/12/25 05:45:12;;;;;;;2.90;2.50;;;10.50;99.90;;;;;;5018805;28;20471;-64
2023/12/25 05:47:39;;;;;;;3.00;2.50;;;10.50;99.90;;;;;;5018882;28;20546;-68
2023/12/25 05:50:08;;;;;;;3.70;2.57;;;10.50;99.90;;;;;;5018535;28;20906;-69
2023/12/25 05:52:37;;;;;;;3.13;2.50;;;10.50;99.90;;;;;;5018927;28;20860;-71
2023/12/25 05:55:05;;;;;;;3.50;2.07;;;10.50;99.90;;;;;;5018553;28;20467;-70
2023/12/25 05:57:32;;;;;;;3.60;2.27;;;10.60;99.90;;;;;;5018129;28;20554;-71
2023/12/25 05:59:59;;;;;;;4.07;2.23;;;10.50;99.90;;;;;;5018353;28;20506;-65
2023/12/25 06:02:26;;;;;;;3.47;2.47;;;10.50;99.90;;;;;;5018564;28;20456;-67
2023/12/25 06:04:53;;;;;;;4.00;2.10;;;10.50;99.90;;;;;;5018050;28;21017;-66
2023/12/25 06:07:21;;;;;;;3.30;2.70;;;10.50;99.90;;;;;;5018867;28;20462;-66
2023/12/25 06:09:50;;;;;;;3.40;2.83;;;10.50;99.90;;;;;;5018899;28;20464;-63
2023/12/25 06:12:17;;;;;;;3.27;2.93;;;10.50;99.90;;;;;;5018824;28;20819;-66
2023/12/25 06:14:44;;;;;;;3.00;2.60;;;10.50;99.90;;;;;;5019123;28;20479;-67
2023/12/25 06:17:11;;;;;;;2.87;2.50;;;10.50;99.90;;;;;;5018115;28;20965;-65
2023/12/25 06:19:38;;;;;;;3.00;2.60;;;10.50;99.90;;;;;;5017540;28;20566;-67
2023/12/25 06:22:05;;;;;;;3.40;2.33;;;10.50;99.90;;;;;;5018367;28;20543;-68
2023/12/25 06:24:32;;;;;;;3.73;2.20;;;10.50;99.90;;;;;;5018410;28;20491;-68
2023/12/25 06:27:01;;;;;;;4.07;2.60;;;10.50;99.90;;;;;;5018072;28;20753;-65
2023/12/25 06:29:28;;;;;;;4.37;2.87;;;10.50;99.90;;;;;;5017765;28;20837;-66
2023/12/25 06:31:55;;;;;;;2.87;2.40;;;10.50;99.90;;;;;;5017659;28;20460;-66
2023/12/25 06:34:22;;;;;;;4.63;2.30;;;10.50;99.90;;;;;;5018096;28;20551;-65
2023/12/25 06:36:50;;;;;;;3.77;2.60;;;10.40;99.90;;;;;;5017810;28;20559;-65
2023/12/25 06:39:17;;;;;;;6.33;3.00;;;10.50;99.90;;;;;;5017556;28;20845;-69
2023/12/25 06:41:44;;;;;;;4.30;2.50;;;10.50;99.90;;;;;;5017685;28;20464;-64
2023/12/25 06:44:13;;;;;;;4.67;2.60;;;10.50;99.90;;;;;;5017517;28;20491;-65
2023/12/25 06:46:40;;;;;;;3.00;2.30;;;10.50;99.90;;;;;;5017789;28;20443;-65
2023/12/25 06:49:07;;;;;;;4.53;3.00;;;10.50;99.90;;;;;;5017600;28;20464;-66
2023/12/25 06:51:34;;;;;;;3.47;2.57;;;10.50;99.90;;;;;;5017568;28;20562;-67
2023/12/25 06:54:02;;;;;;;4.33;2.60;;;10.50;99.90;;;;;;5017935;28;20502;-65
2023/12/25 06:56:29;;;;;;;3.53;2.63;;;10.50;99.90;;;;;;5017552;28;20460;-66
2023/12/25 06:58:57;;;;;;;5.17;2.70;;;10.50;99.90;;;;;;5017453;28;20486;-65
2023/12/25 07:01:26;;;;;;;3.83;2.90;;;10.60;99.90;;;;;;5017951;28;20491;-66
2023/12/25 07:03:53;;;;;;;4.60;3.10;;;10.50;99.90;;;;;;5017454;28;20488;-64
2023/12/25 07:06:20;;;;;;;4.13;2.80;;;10.60;99.90;;;;;;5017092;28;20456;-64
2023/12/25 07:08:47;;;;;;;4.20;2.90;;;10.50;99.90;;;;;;5017556;28;20830;-65
2023/12/25 07:11:14;;;;;;;3.83;2.93;;;10.50;99.90;;;;;;5017553;28;20813;-67
2023/12/25 07:13:42;;;;;;;3.33;2.80;;;10.60;99.90;;;;;;5017181;28;20463;-64
2023/12/25 07:16:10;;;;;;;3.87;2.87;;;10.50;99.90;;;;;;5017437;28;20559;-70
2023/12/25 07:18:38;;;;;;;3.23;2.10;;;10.50;99.90;;;;;;5017424;28;20489;-64
2023/12/25 07:21:05;;;;;;;4.50;2.33;;;10.50;99.90;;;;;;5021061;28;20759;-65
2023/12/25 07:23:33;;;;;;;3.53;2.40;;;10.50;99.90;;;;;;5021043;28;20492;-66
2023/12/25 07:26:00;;;;;;;4.47;2.37;;;10.60;99.90;;;;;;5021303;28;20460;-65
2023/12/25 07:28:27;;;;;;;2.80;2.30;;;10.60;99.90;;;;;;5021198;28;20459;-66
2023/12/25 07:30:54;;;;;;;4.20;2.47;;;10.50;99.90;;;;;;5020682;28;20455;-66
2023/12/25 07:33:21;;;;;;;2.87;2.37;;;10.50;99.90;;;;;;5020843;28;20459;-69
2023/12/25 07:35:50;;;;;;;4.00;2.50;;;10.50;99.90;;;;;;5020975;28;20523;-65
2023/12/25 07:38:17;;;;;;;3.20;2.50;;;10.50;99.90;;;;;;5021105;28;20885;-66
2023/12/25 07:40:44;;;;;;;3.63;2.23;;;10.50;99.90;;;;;;5020848;28;20459;-64
2023/12/25 07:43:11;;;;;;;3.50;2.50;;;10.60;99.90;;;;;;5020168;28;20562;-65
2023/12/25 07:45:39;;;;;;;3.33;2.70;;;10.50;99.90;;;;;;5020964;28;20761;-68
2023/12/25 07:48:06;;;;;;;3.10;2.47;;;10.50;99.90;;;;;;5020689;28;20889;-66
2023/12/25 07:50:34;;;;;;;4.10;2.23;;;10.60;99.90;;;;;;5020430;28;20470;-67
2023/12/25 07:53:04;;;;;;;3.50;2.50;;;10.60;99.90;;;;;;5020751;28;20554;-66
2023/12/25 07:55:33;;;;;;;5.20;2.20;;;10.50;99.90;;;;;;5020603;28;20958;-65
2023/12/25 07:58:00;;;;;;;6.43;2.30;;;10.60;99.90;;;;;;5020490;28;20517;-65
2023/12/25 08:00:28;;;;;;;3.33;2.47;;;10.50;99.90;;;;;;5020401;28;20745;-66
2023/12/25 08:02:55;;;;;;;4.13;2.40;;;10.50;99.90;;;;;;5019454;28;20558;-66
2023/12/25 08:05:22;;;;;;;2.93;2.40;;;10.60;99.90;;;;;;5019402;28;20491;-66
2023/12/25 08:07:50;;;;;;;2.90;2.50;;;10.60;99.90;;;;;;5020039;28;20897;-66
2023/12/25 08:10:18;;;;;;;3.10;2.63;;;10.60;99.90;;;;;;5017362;28;20551;-67
2023/12/25 08:12:46;;;;;;;3.10;2.43;;;10.60;99.90;;;;;;5015515;28;20534;-65
2023/12/25 08:15:13;;;;;;;4.27;2.00;;;10.60;99.90;;;;;;5018453;28;20485;-66
2023/12/25 08:17:41;;;;;;;3.23;2.67;;;10.60;99.90;;;;;;5018360;28;20487;-67
2023/12/25 08:20:10;;;;;;;2.80;2.30;;;10.60;99.90;;;;;;5018330;28;20498;-64
2023/12/25 08:22:37;;;;;;;4.00;2.20;;;10.60;99.90;;;;;;5018052;28;20514;-66
2023/12/25 08:25:05;;;;;;;3.27;2.30;;;10.60;99.90;;;;;;5017675;28;20918;-66
2023/12/25 08:27:33;;;;;;;3.87;2.70;;;10.60;99.90;;;;;;5019242;28;20657;-65
2023/12/25 08:30:03;;;;;;;3.37;2.00;;;10.60;99.90;;;;;;5019965;28;20464;-65
2023/12/25 08:32:30;;;;;;;4.10;2.70;;;10.60;99.90;;;;;;5019695;28;20464;-65
2023/12/25 08:34:57;;;;;;;3.23;2.47;;;10.60;99.90;;;;;;5019156;28;20466;-65
2023/12/25 08:37:24;;;;;;;3.10;2.40;;;10.60;99.90;;;;;;5019713;28;20460;-65
2023/12/25 08:39:51;;;;;;;4.37;2.50;;;10.60;99.90;;;;;;5019484;28;20749;-64
2023/12/25 08:42:19;;;;;;;3.70;2.37;;;10.60;99.90;;;;;;5017950;28;20511;-66
2023/12/25 08:44:48;;;;;;;2.90;2.20;;;10.60;99.90;;;;;;5019312;28;20488;-66
2023/12/25 08:47:15;;;;;;;2.70;2.37;;;10.60;99.90;;;;;;5018944;28;20530;-65
2023/12/25 08:49:42;;;;;;;3.77;2.00;;;10.60;99.90;;;;;;5018514;28;20546;-65
2023/12/25 08:52:10;;;;;;;3.30;2.50;;;10.60;99.90;;;;;;5019303;28;20467;-65
2023/12/25 08:54:37;;;;;;;3.00;2.30;;;10.70;99.90;;;;;;5018755;28;20456;-65
2023/12/25 08:57:05;;;;;;;2.50;1.93;;;10.70;99.90;;;;;;5019551;28;20463;-65
2023/12/25 08:59:32;;;;;;;3.60;2.13;;;10.70;99.90;;;;;;5018931;28;20479;-65
2023/12/25 09:02:01;;;;;;;2.90;2.30;;;10.70;99.90;;;;;;5018024;28;20919;-66
2023/12/25 09:04:28;;;;;;;4.10;2.30;;;10.70;99.90;;;;;;5017396;28;20514;-65
2023/12/25 09:06:55;;;;;;;2.43;1.87;;;10.70;99.90;;;;;;5017114;28;20467;-65
2023/12/25 09:09:23;;;;;;;2.60;2.20;;;10.70;99.90;;;;;;5017002;28;20470;-66
2023/12/25 09:11:50;;;;;;;2.80;2.20;;;10.70;99.90;;;;;;5017343;28;20483;-66
2023/12/25 09:14:20;;;;;;;3.00;2.30;;;10.70;99.90;;;;;;5016892;28;20517;-66
2023/12/25 09:16:47;;;;;;;2.87;1.93;;;10.70;99.90;;;;;;5016681;28;20470;-66
2023/12/25 09:19:16;;;;;;;2.87;2.13;;;10.70;99.90;;;;;;5017435;28;20586;-66
2023/12/25 09:21:43;;;;;;;5.30;4.50;;;10.70;99.90;;;;;;5018001;28;20463;-65
2023/12/25 09:24:10;;;;;;;3.10;2.13;;;10.70;99.90;;;;;;5017448;28;20492;-66
2023/12/25 09:26:37;;;;;;;3.00;2.47;;;10.80;99.90;;;;;;5018102;28;20746;-65
2023/12/25 09:29:05;;;;;;;2.83;2.53;;;10.80;99.90;;;;;;5018055;28;20920;-67
2023/12/25 09:31:32;;;;;;;3.10;2.53;;;10.80;99.90;;;;;;5018651;28;20908;-70
2023/12/25 09:33:59;;;;;;;3.60;3.00;;;10.80;99.90;;;;;;5018315;28;20460;-66
2023/12/25 09:36:29;;;;;;;3.13;2.40;;;10.80;99.90;;;;;;5017489;28;20461;-66
2023/12/25 09:38:56;;;;;;;2.80;2.07;;;10.80;99.90;;;;;;5016600;28;20522;-66
2023/12/25 09:41:25;;;;;;;2.93;2.33;;;10.80;99.90;;;;;;5016400;28;20456;-69
2023/12/25 09:43:55;;;;;;;3.07;2.23;;;10.80;99.90;;;;;;5017921;28;20538;-66
2023/12/25 09:46:24;;;;;;;2.70;2.40;;;10.80;99.90;;;;;;5016789;28;20452;-66
2023/12/25 09:48:52;;;;;;;2.30;2.03;;;10.80;99.90;;;;;;5016737;28;20467;-66
2023/12/25 09:51:23;;;;;;;4.17;2.50;;;10.80;99.90;;;;;;5016528;28;20460;-66
2023/12/25 09:53:51;;;;;;;3.27;2.53;;;10.90;99.90;;;;;;5017289;28;20827;-67
2023/12/25 09:56:21;;;;;;;2.60;2.23;;;10.80;99.90;;;;;;5018092;28;20551;-66
2023/12/25 09:58:49;;;;;;;2.97;2.10;;;10.80;99.90;;;;;;5017791;28;20467;-65
2023/12/25 10:01:18;;;;;;;2.73;2.33;;;10.90;99.90;;;;;;5017514;28;20470;-66
2023/12/25 10:03:46;;;;;;;2.90;2.30;;;10.90;99.90;;;;;;5017868;28;20464;-67
2023/12/25 10:06:13;;;;;;;2.17;1.57;;;10.80;99.90;;;;;;5017542;28;20495;-65
2023/12/25 10:08:41;;;;;;;3.00;1.97;;;10.80;99.90;;;;;;5018169;28;20881;-67
2023/12/25 10:11:14;;;;;;;3.50;2.40;;;10.80;99.90;;;;;;5017772;28;20825;-65
2023/12/25 10:13:41;;;;;;;2.30;1.80;;;10.80;99.90;;;;;;5017967;28;20460;-65
2023/12/25 10:16:09;;;;;;;2.73;2.23;;;10.80;99.90;;;;;;5017518;28;20431;-68
2023/12/25 10:18:38;;;;;;;2.80;2.00;;;10.80;99.90;;;;;;5017719;28;20571;-68
2023/12/25 10:21:09;;;;;;;2.73;2.20;;;10.80;99.90;;;;;;5017412;28;20435;-66
2023/12/25 10:23:37;;;;;;;2.50;1.83;;;10.80;99.90;;;;;;5017610;28;20463;-65
2023/12/25 10:26:05;;;;;;;2.63;2.00;;;10.80;99.90;;;;;;5017788;28;20495;-66
2023/12/25 10:28:35;;;;;;;3.37;1.70;;;10.80;99.90;;;;;;5018019;28;20538;-66
2023/12/25 10:31:03;;;;;;;2.77;1.90;;;10.80;99.90;;;;;;5017192;28;20525;-70
2023/12/25 10:33:30;;;;;;;2.70;2.10;;;10.80;99.90;;;;;;5017475;28;20496;-65
2023/12/25 10:36:05;;;;;;;2.70;1.80;;;10.80;99.90;;;;;;5017680;28;20463;-66
2023/12/25 10:38:35;;;;;;;2.63;1.87;;;10.80;99.90;;;;;;5003092;28;20759;-66
2023/12/25 10:41:22;;;;;;;2.40;1.60;;;10.80;99.90;;;;;;4997987;28;20465;-66
2023/12/25 10:43:53;;;;;;;2.50;1.93;;;10.80;99.90;;;;;;4998201;28;20539;-65
2023/12/25 10:46:21;;;;;;;2.80;2.10;;;10.80;99.90;;;;;;4997873;28;20626;-65
2023/12/25 10:48:50;;;;;;;2.30;1.83;;;10.90;99.90;;;;;;4997123;28;20621;-66
2023/12/25 10:51:25;;;;;;;2.40;1.80;;;10.80;99.90;;;;;;4998011;28;20480;-66
2023/12/25 10:53:52;;;;;;;2.40;1.90;;;10.80;99.90;;;;;;4996507;28;20748;-66
2023/12/25 10:56:24;;;;;;;2.40;1.80;;;10.80;99.90;;;;;;4997632;28;20432;-65
2023/12/25 10:58:53;;;;;;;2.40;1.90;;;10.90;99.90;;;;;;4997321;28;20465;-65
2023/12/25 11:01:25;;;;;;;3.30;1.93;;;10.90;99.90;;;;;;4996943;28;20592;-65
2023/12/25 11:03:53;;;;;;;2.83;1.90;;;10.90;99.90;;;;;;4997678;28;20897;-66
2023/12/25 11:06:22;;;;;;;2.30;1.60;;;10.90;99.90;;;;;;4997878;28;20865;-69
2023/12/25 11:08:49;;;;;;;2.63;1.70;;;10.80;99.90;;;;;;4997671;28;20544;-68
2023/12/25 11:11:17;;;;;;;2.10;1.20;;;10.90;99.90;;;;;;4997362;28;20980;-66
2023/12/25 11:13:44;;;;;;;3.17;1.90;;;10.80;99.90;;;;;;4997375;28;20467;-66
2023/12/25 11:16:15;;;;;;;2.60;1.70;;;10.90;99.90;;;;;;4997680;28;20465;-66
2023/12/25 11:18:42;;;;;;;2.27;1.57;;;10.80;99.90;;;;;;4997268;28;20596;-68
2023/12/25 11:21:12;;;;;;;2.20;1.40;;;10.80;99.90;;;;;;4997421;28;20464;-68
2023/12/25 11:23:41;;;;;;;2.57;1.77;;;10.80;99.90;;;;;;4997111;28;20500;-67
2023/12/25 11:26:09;;;;;;;2.60;1.93;;;10.80;99.90;;;;;;4997455;28;20954;-70
2023/12/25 11:28:38;;;;;;;2.50;1.70;;;10.80;99.90;;;;;;4997383;28;20471;-66
2023/12/25 11:31:07;;;;;;;2.57;1.70;;;10.80;99.90;;;;;;4996882;28;20551;-67
2023/12/25 11:33:44;;;;;;;3.63;1.80;;;10.80;99.90;;;;;;4996643;28;20465;-67
2023/12/25 11:36:17;;;;;;;2.63;2.23;;;10.80;99.90;;;;;;4996699;28;20456;-67
2023/12/25 11:38:45;;;;;;;2.43;1.93;;;10.90;99.90;;;;;;4997280;28;20469;-67
2023/12/25 11:41:17;;;;;;;2.67;2.07;;;10.80;99.90;;;;;;4997094;28;20469;-67
2023/12/25 11:43:47;;;;;;;2.80;2.20;;;10.80;99.90;;;;;;4997198;28;20875;-67
2023/12/25 11:46:16;;;;;;;2.80;2.00;;;10.80;99.90;;;;;;4997403;28;20495;-68
2023/12/25 11:48:47;;;;;;;2.37;1.97;;;10.80;99.90;;;;;;4997313;28;20460;-66
2023/12/25 11:51:22;;;;;;;2.80;2.10;;;10.90;99.90;;;;;;4997104;28;20467;-67
2023/12/25 11:53:51;;;;;;;3.50;2.30;;;10.90;99.90;;;;;;4996957;28;20464;-66
2023/12/25 11:56:19;;;;;;;2.93;2.20;;;10.90;99.90;;;;;;4997294;28;20815;-66
2023/12/25 11:58:46;;;;;;;2.90;2.30;;;10.90;99.90;;;;;;4996803;28;20492;-66
2023/12/25 12:01:18;;;;;;;3.30;2.17;;;10.90;99.90;;;;;;4996690;28;20767;-66
2023/12/25 12:03:49;;;;;;;2.80;2.40;;;10.90;99.90;;;;;;4996284;28;20443;-67
2023/12/25 12:06:17;;;;;;;2.80;2.50;;;10.90;99.90;;;;;;4999220;28;20997;-67
2023/12/25 12:08:44;;;;;;;2.80;2.37;;;10.90;99.90;;;;;;5000325;28;20465;-68
2023/12/25 12:11:14;;;;;;;3.20;2.07;;;10.90;99.90;;;;;;5000123;28;20567;-68
2023/12/25 12:13:41;;;;;;;2.87;2.57;;;10.90;99.90;;;;;;5000346;28;20544;-70
2023/12/25 12:16:08;;;;;;;2.90;2.23;;;10.90;99.90;;;;;;5000726;28;20460;-70
2023/12/25 12:18:36;;;;;;;2.73;2.00;;;10.90;99.90;;;;;;4998971;28;20575;-68
2023/12/25 12:21:06;;;;;;;3.10;2.50;;;10.90;99.90;;;;;;4999501;28;20468;-69
2023/12/25 12:23:33;;;;;;;2.90;2.40;;;10.90;99.90;;;;;;5000185;28;20464;-69
2023/12/25 12:26:01;;;;;;;4.03;2.50;;;11.00;99.90;;;;;;5000023;28;20968;-70
2023/12/25 12:28:28;;;;;;;2.90;2.30;;;10.90;99.90;;;;;;5000403;28;20555;-70
2023/12/25 12:30:55;;;;;;;3.33;2.37;;;11.00;99.90;;;;;;4999091;28;20503;-68
2023/12/25 12:33:24;;;;;;;3.00;2.60;;;11.00;99.90;;;;;;5000108;28;20467;-69
2023/12/25 12:35:52;;;;;;;2.67;2.20;;;11.00;99.90;;;;;;5010735;28;20464;-71
2023/12/25 12:38:21;;;;;;;2.80;2.13;;;11.00;99.90;;;;;;5019526;28;20466;-67
2023/12/25 12:40:50;;;;;;;3.30;2.30;;;11.10;99.90;;;;;;5019603;28;20907;-67
2023/12/25 12:43:20;;;;;;;3.10;2.80;;;11.10;99.90;;;;;;5019054;28;20456;-66
2023/12/25 12:45:47;;;;;;;3.20;2.60;;;11.20;99.90;;;;;;5019048;28;20492;-67
2023/12/25 12:48:15;;;;;;;2.67;2.10;;;11.20;99.90;;;;;;5019584;28;20460;-68
2023/12/25 12:50:42;;;;;;;3.30;2.50;;;11.10;99.90;;;;;;5019241;28;20464;-68